Terminal Aerodrome Forecast
Issued by NWS

Home | Current Version | Previous Version | Text Only | Print | Product List | Glossary On
Versions: 1 2 3 4 5 6 7 8 9 10 11 12
255
FTAK31 PAJN 270540
TAFAJN
TAF
PAJN 270540Z 2706/2806 12010KT P6SM VCSH OVC060
     FM270800 11012KT P6SM -RA BKN035 OVC060
     FM271100 11012KT 6SM -RA BR BKN030 OVC050
     FM271700 10012KT P6SM VCSH BKN045
     FM272300 10015KT P6SM -SHRA OVC045=

USA.gov is the U.S. government's official web portal to all federal, state and local government web resources and services.